Time;durP1;ratioP1;P1;durP2;ratioP2;P2;SDS_P1;SDS_P2;PMS_P1;PMS_P2;Temp;Humidity;BMP_temperature;BMP_pressure;BME280_temperature;BME280_humidity;BME280_pressure;Samples;Min_cycle;Max_cycle;Signal;HPM_P1;HPM_P2
2023/08/23 00:02:55;;;;;;;4.30;3.90;;;24.10;86.60;;;;;;6236802;23;20384;-84
2023/08/23 00:05:39;;;;;;;6.17;4.17;;;24.20;89.40;;;;;;6214045;23;20507;-84
2023/08/23 00:08:26;;;;;;;4.60;4.20;;;24.20;90.40;;;;;;6193529;23;20452;-83
2023/08/23 00:11:19;;;;;;;4.37;3.97;;;24.10;90.90;;;;;;6211069;23;20424;-84
2023/08/23 00:14:06;;;;;;;4.80;4.27;;;23.70;90.60;;;;;;6206668;23;20419;-84
2023/08/23 00:16:58;;;;;;;4.90;4.40;;;23.90;91.30;;;;;;6233912;23;20404;-85
2023/08/23 00:20:00;;;;;;;5.03;4.63;;;23.40;91.20;;;;;;6197121;23;20455;-84
2023/08/23 00:22:59;;;;;;;6.10;4.43;;;23.90;91.70;;;;;;6140687;23;20440;-83
2023/08/23 00:29:03;;;;;;;5.20;4.70;;;23.80;92.80;;;;;;6215780;23;20471;-82
2023/08/23 00:31:42;;;;;;;4.87;4.33;;;23.50;93.10;;;;;;6185511;23;20634;-83
2023/08/23 00:34:23;;;;;;;4.30;3.90;;;23.60;93.70;;;;;;6183903;23;20451;-82
2023/08/23 00:40:23;;;;;;;4.83;4.30;;;23.50;93.20;;;;;;6208653;23;20431;-83
2023/08/23 00:43:34;;;;;;;7.80;4.67;;;23.60;93.10;;;;;;6175342;23;20405;-83
2023/08/23 00:46:48;;;;;;;6.07;4.47;;;23.60;93.30;;;;;;6189968;23;20404;-82
2023/08/23 00:49:55;;;;;;;5.80;4.50;;;23.40;94.00;;;;;;6167897;23;20394;-84
2023/08/23 00:52:44;;;;;;;9.27;3.97;;;23.70;94.40;;;;;;6184971;23;20910;-82
2023/08/23 00:55:45;;;;;;;7.27;4.03;;;23.20;94.70;;;;;;6171631;23;20405;-83
2023/08/23 00:58:32;;;;;;;4.23;3.83;;;23.10;94.40;;;;;;6206602;23;20443;-85
2023/08/23 01:01:23;;;;;;;5.10;4.60;;;23.10;95.20;;;;;;6180607;23;20427;-82
2023/08/23 01:04:12;;;;;;;5.77;4.70;;;22.50;94.80;;;;;;6173343;23;20443;-82
2023/08/23 01:07:26;;;;;;;5.10;4.30;;;23.10;94.80;;;;;;6184577;23;20427;-85
2023/08/23 01:10:51;;;;;;;5.57;4.40;;;23.10;94.20;;;;;;6178642;23;20429;-84
2023/08/23 01:13:57;;;;;;;6.57;4.30;;;22.30;93.90;;;;;;6176260;23;20802;-85
2023/08/23 01:19:34;;;;;;;4.23;3.90;;;23.00;94.40;;;;;;6209103;23;20437;-84
2023/08/23 01:22:33;;;;;;;5.40;4.70;;;23.30;94.30;;;;;;6188693;23;20949;-82
2023/08/23 01:25:43;;;;;;;5.00;4.60;;;22.90;94.50;;;;;;6180516;23;20429;-83
2023/08/23 01:28:27;;;;;;;5.83;4.50;;;23.30;94.50;;;;;;6181664;23;20455;-85
2023/08/23 01:31:28;;;;;;;5.27;4.77;;;23.80;97.00;;;;;;6207167;23;20396;-84
2023/08/23 01:34:39;;;;;;;5.60;5.10;;;23.00;96.40;;;;;;6194628;23;20491;-84
2023/08/23 01:37:20;;;;;;;5.50;5.00;;;22.90;98.00;;;;;;6198133;23;20760;-84
2023/08/23 01:40:55;;;;;;;6.07;5.27;;;22.80;97.90;;;;;;6167446;23;20392;-84
2023/08/23 01:47:54;;;;;;;5.93;5.07;;;22.80;98.50;;;;;;6070547;23;20429;-83
2023/08/23 01:57:46;;;;;;;5.27;4.77;;;22.20;99.90;;;;;;6025959;23;20531;-81
2023/08/23 02:00:26;;;;;;;7.30;5.40;;;22.40;99.90;;;;;;6048585;23;20519;-84
2023/08/23 02:03:41;;;;;;;6.00;5.40;;;22.30;99.90;;;;;;6025462;23;20399;-83
2023/08/23 02:06:36;;;;;;;6.77;6.17;;;22.10;99.90;;;;;;6060504;23;20418;-83
2023/08/23 02:09:35;;;;;;;6.30;5.70;;;22.40;99.90;;;;;;6050149;23;20469;-83
2023/08/23 02:12:14;;;;;;;6.53;5.20;;;22.00;99.90;;;;;;6045807;23;20424;-82
2023/08/23 02:15:02;;;;;;;7.40;5.80;;;21.70;99.90;;;;;;6043508;23;20421;-83
2023/08/23 02:17:46;;;;;;;7.07;5.43;;;21.90;99.90;;;;;;6048389;23;20465;-84
2023/08/23 02:20:23;;;;;;;9.03;5.43;;;22.00;99.90;;;;;;6063791;23;20406;-84
2023/08/23 02:23:09;;;;;;;5.93;5.37;;;22.00;99.90;;;;;;6066471;23;20397;-82
2023/08/23 02:26:04;;;;;;;5.83;5.30;;;21.70;99.90;;;;;;6065646;23;20507;-85
2023/08/23 02:29:14;;;;;;;6.00;5.40;;;21.50;99.90;;;;;;5984297;23;20459;-82
2023/08/23 02:35:44;;;;;;;5.87;5.20;;;21.60;99.90;;;;;;6020783;23;20412;-82
2023/08/23 02:41:38;;;;;;;8.57;5.73;;;22.10;99.90;;;;;;6026149;23;20407;-85
2023/08/23 02:44:56;;;;;;;6.13;5.23;;;21.90;99.90;;;;;;6015497;23;20518;-84
2023/08/23 02:47:49;;;;;;;6.87;6.23;;;21.60;99.90;;;;;;6099508;22;20444;-82
2023/08/23 02:50:42;;;;;;;6.70;6.10;;;22.30;99.90;;;;;;6233747;23;20399;-85
2023/08/23 02:53:40;;;;;;;8.20;5.33;;;22.00;99.90;;;;;;6259648;23;20690;-84
2023/08/23 02:56:27;;;;;;;6.80;6.17;;;21.30;99.90;;;;;;6217787;22;20453;-83
2023/08/23 02:59:16;;;;;;;6.37;5.83;;;21.20;99.90;;;;;;6078130;23;20489;-83
2023/08/23 03:05:17;;;;;;;5.77;5.27;;;20.90;99.90;;;;;;6033203;23;20530;-83
2023/08/23 03:11:22;;;;;;;6.33;5.70;;;21.00;99.90;;;;;;6046659;23;20426;-83
2023/08/23 03:13:56;;;;;;;5.57;5.17;;;21.10;99.90;;;;;;6031237;23;20411;-83
2023/08/23 03:17:07;;;;;;;6.50;5.77;;;20.80;99.90;;;;;;6025870;23;20414;-83
2023/08/23 03:19:38;;;;;;;7.83;6.17;;;20.70;99.90;;;;;;6029189;23;20974;-83
2023/08/23 03:22:46;;;;;;;6.30;5.70;;;20.70;99.90;;;;;;6027332;23;20429;-82
2023/08/23 03:25:23;;;;;;;11.13;6.50;;;21.00;99.90;;;;;;6029674;23;20449;-83
2023/08/23 03:28:18;;;;;;;6.13;5.63;;;20.90;99.90;;;;;;6028775;23;20446;-83
2023/08/23 03:31:03;;;;;;;5.83;5.33;;;20.80;99.90;;;;;;6029748;23;20442;-83
2023/08/23 03:34:08;;;;;;;7.07;6.27;;;20.50;99.90;;;;;;6029506;23;20411;-83
2023/08/23 03:36:56;;;;;;;5.77;5.27;;;19.90;99.90;;;;;;6049721;23;20413;-83
2023/08/23 03:39:45;;;;;;;6.47;5.87;;;20.50;99.90;;;;;;6027074;23;20418;-82
2023/08/23 03:42:19;;;;;;;6.90;6.23;;;20.70;99.90;;;;;;6052477;23;20419;-81
2023/08/23 03:45:00;;;;;;;7.27;6.67;;;20.50;99.90;;;;;;6031305;23;20455;-81
2023/08/23 03:47:47;;;;;;;7.37;6.67;;;20.70;99.90;;;;;;6025461;23;20788;-80
2023/08/23 03:50:25;;;;;;;7.07;6.47;;;20.50;99.90;;;;;;6028292;23;20752;-85
2023/08/23 03:53:17;;;;;;;8.03;7.23;;;20.20;99.90;;;;;;6027508;23;20476;-83
2023/08/23 03:55:58;;;;;;;7.47;6.70;;;20.30;99.90;;;;;;6049221;23;20427;-84
2023/08/23 03:58:31;;;;;;;6.50;6.00;;;20.40;99.90;;;;;;6053270;23;20464;-84
2023/08/23 04:01:20;;;;;;;8.00;6.47;;;20.30;99.90;;;;;;6156380;23;20743;-83
2023/08/23 04:03:57;;;;;;;7.10;6.50;;;20.10;99.90;;;;;;6177444;23;20422;-84
2023/08/23 04:07:02;;;;;;;7.10;6.37;;;20.30;99.90;;;;;;6152124;23;20453;-82
2023/08/23 04:10:26;;;;;;;7.10;6.47;;;20.00;99.90;;;;;;6096886;23;20426;-84
2023/08/23 04:13:05;;;;;;;7.07;6.57;;;20.20;99.90;;;;;;6135208;23;20414;-82
2023/08/23 04:15:50;;;;;;;6.40;5.83;;;20.20;99.90;;;;;;6151965;23;20573;-84
2023/08/23 04:18:46;;;;;;;6.93;6.17;;;21.00;99.90;;;;;;6151060;23;21132;-82
2023/08/23 04:21:32;;;;;;;7.70;7.10;;;20.80;99.90;;;;;;6175074;23;20805;-82
2023/08/23 04:27:16;;;;;;;8.83;6.20;;;20.40;99.90;;;;;;6167818;23;20438;-84
2023/08/23 04:29:54;;;;;;;6.83;6.07;;;20.20;99.90;;;;;;6154971;23;20417;-84
2023/08/23 04:32:45;;;;;;;6.37;5.87;;;19.90;99.90;;;;;;6178937;23;20410;-83
2023/08/23 04:35:29;;;;;;;7.40;6.70;;;20.90;99.90;;;;;;6138845;23;20425;-84
2023/08/23 04:38:48;;;;;;;8.10;6.40;;;20.40;99.90;;;;;;6152379;23;20440;-83
2023/08/23 04:41:32;;;;;;;8.20;6.53;;;20.60;99.90;;;;;;6151051;23;20413;-85
2023/08/23 04:44:51;;;;;;;9.27;6.60;;;20.20;99.90;;;;;;6149600;23;20421;-84
2023/08/23 04:52:02;;;;;;;8.30;7.60;;;20.30;99.90;;;;;;6176429;23;20429;-83
2023/08/23 04:58:19;;;;;;;8.17;7.37;;;20.20;99.90;;;;;;6183222;23;20523;-84
2023/08/23 05:01:06;;;;;;;12.43;9.00;;;20.10;99.90;;;;;;6207216;23;20429;-83
2023/08/23 05:03:53;;;;;;;8.87;8.00;;;21.00;99.90;;;;;;6192570;23;20754;-82
2023/08/23 05:14:18;;;;;;;8.70;7.20;;;19.90;99.90;;;;;;6061796;23;20425;-82
2023/08/23 05:17:51;;;;;;;8.03;7.33;;;19.80;99.90;;;;;;6105174;23;20451;-83
2023/08/23 05:20:51;;;;;;;8.70;6.70;;;20.00;99.90;;;;;;6185420;23;20424;-82
2023/08/23 05:23:57;;;;;;;7.93;7.20;;;20.10;99.90;;;;;;6182455;23;20455;-83
2023/08/23 05:26:38;;;;;;;7.87;7.07;;;19.30;99.90;;;;;;6036243;23;20501;-82
2023/08/23 05:29:29;;;;;;;10.17;7.70;;;19.80;99.90;;;;;;6076290;23;20408;-84
2023/08/23 05:32:12;;;;;;;8.10;7.40;;;20.00;99.90;;;;;;6167741;23;20784;-84
2023/08/23 05:59:45;;;;;;;8.17;7.47;;;20.00;99.90;;;;;;6023762;23;20406;-84
2023/08/23 06:52:38;;;;;;;;;;;;;;;;;;;;;
2023/08/23 09:11:46;;;;;;;6.73;6.13;;;36.20;46.40;;;;;;6206621;23;20607;-83
2023/08/23 12:38:53;;;;;;;3.00;1.93;;;34.30;42.90;;;;;;6139797;22;20523;-83
2023/08/23 15:42:41;;;;;;;;;;;;;;;;;;;;;
2023/08/23 16:55:10;;;;;;;;;;;;;;;;;;;;;
2023/08/23 19:01:51;;;;;;;4.90;3.10;;;29.20;43.60;;;;;;6123019;23;20784;-82
2023/08/23 19:55:37;;;;;;;;;;;;;;;;;;;;;
2023/08/23 20:03:13;;;;;;;4.70;3.77;;;28.90;47.40;;;;;;6217228;23;20365;-84
2023/08/23 20:22:16;;;;;;;3.63;2.90;;;28.90;50.50;;;;;;6217728;23;20388;-84
2023/08/23 20:25:37;;;;;;;3.80;2.43;;;28.20;50.00;;;;;;6073842;23;20536;-83
2023/08/23 20:29:13;;;;;;;;;;;;;;;;;;;;;
2023/08/23 20:32:56;;;;;;;3.70;3.40;;;28.60;50.20;;;;;;6236692;22;20452;-84
2023/08/23 20:36:53;;;;;;;3.40;3.10;;;27.80;50.10;;;;;;5979052;24;20419;-85
2023/08/23 20:40:12;;;;;;;4.00;3.60;;;28.10;50.80;;;;;;5964945;24;20410;-83
2023/08/23 20:43:47;;;;;;;4.40;4.00;;;28.20;51.40;;;;;;5954261;24;20476;-83
2023/08/23 20:54:10;;;;;;;3.87;3.57;;;27.60;54.20;;;;;;6221448;23;20412;-83
2023/08/23 21:04:22;;;;;;;4.20;3.90;;;27.50;55.70;;;;;;6230581;23;20445;-84
2023/08/23 21:13:05;;;;;;;7.40;4.20;;;27.20;55.60;;;;;;6240135;23;20392;-83
2023/08/23 21:16:23;;;;;;;4.27;3.90;;;27.20;54.90;;;;;;6260537;23;20400;-80
2023/08/23 21:26:50;;;;;;;;;;;;;;;;;;;;;
2023/08/23 21:38:44;;;;;;;;;;;;;;;;;;;;;
2023/08/23 21:42:02;;;;;;;5.03;3.80;;;26.50;56.00;;;;;;5860867;24;20414;-85
2023/08/23 21:45:21;;;;;;;4.30;3.90;;;26.40;57.20;;;;;;5836393;24;20418;-85
2023/08/23 21:48:33;;;;;;;3.77;3.47;;;26.40;57.20;;;;;;5864886;24;20884;-85
2023/08/23 21:52:00;;;;;;;4.93;3.80;;;26.80;58.00;;;;;;5861979;24;20409;-84
2023/08/23 22:10:04;;;;;;;4.63;3.80;;;26.10;58.60;;;;;;6241928;22;20813;-82
2023/08/23 22:13:39;;;;;;;4.87;3.77;;;26.30;59.80;;;;;;6243057;23;20411;-83
2023/08/23 22:21:33;;;;;;;3.87;3.47;;;25.60;59.90;;;;;;6028405;23;20483;-84
2023/08/23 22:28:00;;;;;;;6.90;4.37;;;26.00;60.10;;;;;;6244454;22;20490;-82
2023/08/23 22:31:36;;;;;;;4.90;4.50;;;26.20;61.20;;;;;;6223053;23;20408;-84
2023/08/23 22:34:43;;;;;;;4.50;4.00;;;25.90;62.90;;;;;;6161558;23;20397;-83
2023/08/23 22:37:58;;;;;;;4.93;4.43;;;25.80;64.50;;;;;;6165227;23;20812;-82
2023/08/23 22:48:32;;;;;;;7.63;4.23;;;25.50;68.00;;;;;;5997807;22;20444;-84
2023/08/23 22:55:39;;;;;;;;;;;;;;;;;;;;;
2023/08/23 23:43:48;;;;;;;6.23;4.03;;;25.10;69.40;;;;;;6212511;23;20417;-83
2023/08/23 23:47:01;;;;;;;8.20;4.10;;;25.10;70.10;;;;;;6055717;23;20500;-84
